sensor_id;sensor_type;location;lat;lon;timestamp;pressure;altitude;pressure_sealevel;temperature;humidity
12913;BME280;6524;51.368;11.984;2023-06-24T00:06:31;155416.69;;;12.84;86.66
12913;BME280;6524;51.368;11.984;2023-06-24T00:11:34;155441.59;;;12.93;86.05
12913;BME280;6524;51.368;11.984;2023-06-24T00:16:35;155411.47;;;12.82;86.24
12913;BME280;6524;51.368;11.984;2023-06-24T00:21:36;155357.84;;;12.61;87.12
12913;BME280;6524;51.368;11.984;2023-06-24T00:26:37;155441.59;;;12.93;85.33
12913;BME280;6524;51.368;11.984;2023-06-24T00:31:37;155382.69;;;12.70;86.86
12913;BME280;6524;51.368;11.984;2023-06-24T00:36:38;155346.09;;;12.56;86.51
12913;BME280;6524;51.368;11.984;2023-06-24T00:41:38;155383.97;;;12.71;85.49
12913;BME280;6524;51.368;11.984;2023-06-24T00:46:39;155349.97;;;12.58;86.31
12913;BME280;6524;51.368;11.984;2023-06-24T00:51:40;155357.84;;;12.61;86.17
12913;BME280;6524;51.368;11.984;2023-06-24T04:04:24;154942.00;;;10.98;85.69
12913;BME280;6524;51.368;11.984;2023-06-24T04:09:24;154995.59;;;11.19;85.35
12913;BME280;6524;51.368;11.984;2023-06-24T04:14:25;155041.34;;;11.37;84.73
12913;BME280;6524;51.368;11.984;2023-06-24T04:19:25;155047.84;;;11.39;84.43
12913;BME280;6524;51.368;11.984;2023-06-24T04:24:25;155007.34;;;11.24;85.77
12913;BME280;6524;51.368;11.984;2023-06-24T04:29:26;155152.47;;;11.80;83.32
12913;BME280;6524;51.368;11.984;2023-06-24T04:34:29;155143.31;;;11.77;83.80
12913;BME280;6524;51.368;11.984;2023-06-24T04:39:29;155131.59;;;11.72;84.22
12913;BME280;6524;51.368;11.984;2023-06-24T04:44:31;155170.81;;;11.87;83.43
12913;BME280;6524;51.368;11.984;2023-06-24T04:49:31;155187.78;;;11.94;83.29
12913;BME280;6524;51.368;11.984;2023-06-24T04:54:31;155259.72;;;12.22;82.56
12913;BME280;6524;51.368;11.984;2023-06-24T04:59:32;155342.13;;;12.54;81.50
12913;BME280;6524;51.368;11.984;2023-06-24T05:04:32;155318.53;;;12.45;81.87
12913;BME280;6524;51.368;11.984;2023-06-24T05:09:33;155382.69;;;12.70;81.07
12913;BME280;6524;51.368;11.984;2023-06-24T05:14:36;155360.44;;;12.62;82.39
12913;BME280;6524;51.368;11.984;2023-06-24T05:19:37;155455.94;;;12.99;81.34
12913;BME280;6524;51.368;11.984;2023-06-24T05:24:37;155501.75;;;13.17;81.18
12913;BME280;6524;51.368;11.984;2023-06-24T05:29:37;155616.94;;;13.62;79.31
12913;BME280;6524;51.368;11.984;2023-06-24T05:34:38;155682.44;;;13.87;76.49
12913;BME280;6524;51.368;11.984;2023-06-24T05:39:38;155797.69;;;14.32;75.42
12913;BME280;6524;51.368;11.984;2023-06-24T05:44:39;156002.03;;;15.12;70.88
12913;BME280;6524;51.368;11.984;2023-06-24T05:49:39;156163.28;;;15.75;68.55
12913;BME280;6524;51.368;11.984;2023-06-24T05:54:40;156332.41;;;16.41;65.42
12913;BME280;6524;51.368;11.984;2023-06-24T05:59:40;156516.13;;;17.12;62.49
12913;BME280;6524;51.368;11.984;2023-06-24T06:04:41;156639.47;;;17.60;59.87
12913;BME280;6524;51.368;11.984;2023-06-24T06:09:41;156720.91;;;17.92;58.46
12913;BME280;6524;51.368;11.984;2023-06-24T06:14:44;156842.97;;;18.40;56.63
12913;BME280;6524;51.368;11.984;2023-06-24T06:19:45;156849.53;;;18.42;57.23
12913;BME280;6524;51.368;11.984;2023-06-24T06:24:46;156889.00;;;18.58;56.04
12913;BME280;6524;51.368;11.984;2023-06-24T06:29:47;156975.63;;;18.91;55.61
12913;BME280;6524;51.368;11.984;2023-06-24T06:34:54;157001.91;;;19.02;56.31
12913;BME280;6524;51.368;11.984;2023-06-24T06:39:55;156997.94;;;19.00;56.50
12913;BME280;6524;51.368;11.984;2023-06-24T06:44:57;156967.72;;;18.88;55.45
12913;BME280;6524;51.368;11.984;2023-06-24T06:49:57;156883.72;;;18.56;57.09
12913;BME280;6524;51.368;11.984;2023-06-24T06:54:57;156825.91;;;18.33;57.59
12913;BME280;6524;51.368;11.984;2023-06-24T06:59:58;156844.28;;;18.40;57.21
12913;BME280;6524;51.368;11.984;2023-06-24T07:04:59;156854.75;;;18.44;57.23
12913;BME280;6524;51.368;11.984;2023-06-24T07:10:01;156954.63;;;18.83;57.03
12913;BME280;6524;51.368;11.984;2023-06-24T07:15:01;157128.03;;;19.51;54.96
12913;BME280;6524;51.368;11.984;2023-06-24T07:20:02;157151.69;;;19.60;54.17
12913;BME280;6524;51.368;11.984;2023-06-24T07:25:03;157191.09;;;19.75;53.28
12913;BME280;6524;51.368;11.984;2023-06-24T07:30:06;157233.19;;;19.91;52.41
12913;BME280;6524;51.368;11.984;2023-06-24T07:35:07;157285.78;;;20.12;51.88
12913;BME280;6524;51.368;11.984;2023-06-24T07:40:08;157216.13;;;19.85;53.18
12913;BME280;6524;51.368;11.984;2023-06-24T07:45:09;157298.91;;;20.17;52.18
12913;BME280;6524;51.368;11.984;2023-06-24T07:50:09;157326.53;;;20.28;53.09
12913;BME280;6524;51.368;11.984;2023-06-24T07:55:11;157285.78;;;20.12;52.07
12913;BME280;6524;51.368;11.984;2023-06-24T08:00:12;157465.91;;;20.82;51.09
12913;BME280;6524;51.368;11.984;2023-06-24T08:05:12;157367.31;;;20.44;51.07
12913;BME280;6524;51.368;11.984;2023-06-24T08:10:13;157588.25;;;21.29;50.07
12913;BME280;6524;51.368;11.984;2023-06-24T08:15:14;157696.19;;;21.71;48.51
12913;BME280;6524;51.368;11.984;2023-06-24T08:20:14;157661.91;;;21.58;48.12
12913;BME280;6524;51.368;11.984;2023-06-24T08:25:15;157730.38;;;21.85;46.73
12913;BME280;6524;51.368;11.984;2023-06-24T08:30:16;157690.91;;;21.69;46.97
12913;BME280;6524;51.368;11.984;2023-06-24T08:35:16;157522.50;;;21.04;47.51
12913;BME280;6524;51.368;11.984;2023-06-24T08:40:17;157522.50;;;21.04;48.19
12913;BME280;6524;51.368;11.984;2023-06-24T08:45:17;157322.56;;;20.26;49.21
12913;BME280;6524;51.368;11.984;2023-06-24T08:50:18;157271.31;;;20.06;49.34
12913;BME280;6524;51.368;11.984;2023-06-24T08:55:22;157318.66;;;20.25;49.15
12913;BME280;6524;51.368;11.984;2023-06-24T09:00:23;157252.94;;;19.99;49.43
12913;BME280;6524;51.368;11.984;2023-06-24T09:05:24;157285.78;;;20.12;48.62
12913;BME280;6524;51.368;11.984;2023-06-24T09:10:37;157480.38;;;20.88;45.70
12913;BME280;6524;51.368;11.984;2023-06-24T09:15:38;157484.31;;;20.89;44.87
12913;BME280;6524;51.368;11.984;2023-06-24T09:20:41;157469.88;;;20.83;45.59
12913;BME280;6524;51.368;11.984;2023-06-24T09:25:55;157434.34;;;20.70;46.19
12913;BME280;6524;51.368;11.984;2023-06-24T09:36:06;157473.81;;;20.85;45.91
12913;BME280;6524;51.368;11.984;2023-06-24T09:41:08;157327.84;;;20.28;47.11
12913;BME280;6524;51.368;11.984;2023-06-24T09:46:08;157338.34;;;20.32;47.01
12913;BME280;6524;51.368;11.984;2023-06-24T09:51:09;157485.66;;;20.90;45.79
12913;BME280;6524;51.368;11.984;2023-06-24T09:56:13;157430.44;;;20.68;46.13
12913;BME280;6524;51.368;11.984;2023-06-24T10:01:14;157451.44;;;20.76;45.71
12913;BME280;6524;51.368;11.984;2023-06-24T10:06:16;157483.00;;;20.89;44.86
12913;BME280;6524;51.368;11.984;2023-06-24T10:11:17;157517.28;;;21.02;44.78
12913;BME280;6524;51.368;11.984;2023-06-24T10:16:17;157527.78;;;21.06;44.33
12913;BME280;6524;51.368;11.984;2023-06-24T10:21:18;157556.69;;;21.17;44.39
12913;BME280;6524;51.368;11.984;2023-06-24T10:26:27;157740.88;;;21.89;42.10
12913;BME280;6524;51.368;11.984;2023-06-24T10:36:39;157790.88;;;22.08;41.99
12913;BME280;6524;51.368;11.984;2023-06-24T10:41:40;157743.56;;;21.90;42.07
12913;BME280;6524;51.368;11.984;2023-06-24T10:46:41;157804.06;;;22.13;41.88
12913;BME280;6524;51.368;11.984;2023-06-24T10:51:41;157898.84;;;22.50;41.62
12913;BME280;6524;51.368;11.984;2023-06-24T10:56:43;158017.34;;;22.96;40.46
12913;BME280;6524;51.368;11.984;2023-06-24T11:01:53;158108.22;;;23.31;39.61
12913;BME280;6524;51.368;11.984;2023-06-24T11:07:01;158058.19;;;23.12;39.27
12913;BME280;6524;51.368;11.984;2023-06-24T11:12:05;158149.06;;;23.47;38.38
12913;BME280;6524;51.368;11.984;2023-06-24T11:17:06;158150.38;;;23.48;37.11
12913;BME280;6524;51.368;11.984;2023-06-24T11:22:07;158275.53;;;23.96;38.14
12913;BME280;6524;51.368;11.984;2023-06-24T11:27:07;158035.81;;;23.03;38.70
12913;BME280;6524;51.368;11.984;2023-06-24T11:32:08;158017.34;;;22.96;39.67
12913;BME280;6524;51.368;11.984;2023-06-24T11:37:11;158001.59;;;22.90;39.46
12913;BME280;6524;51.368;11.984;2023-06-24T11:42:11;157861.97;;;22.36;40.26
12913;BME280;6524;51.368;11.984;2023-06-24T11:47:12;157904.09;;;22.52;39.81
12913;BME280;6524;51.368;11.984;2023-06-24T11:52:12;158033.13;;;23.02;38.72
12913;BME280;6524;51.368;11.984;2023-06-24T11:57:13;158162.22;;;23.52;39.89
12913;BME280;6524;51.368;11.984;2023-06-24T12:02:13;158272.91;;;23.95;36.92
12913;BME280;6524;51.368;11.984;2023-06-24T12:07:14;158278.19;;;23.97;37.38
12913;BME280;6524;51.368;11.984;2023-06-24T12:12:14;158294.00;;;24.03;36.75
12913;BME280;6524;51.368;11.984;2023-06-24T12:17:15;158420.47;;;24.53;36.69
12913;BME280;6524;51.368;11.984;2023-06-24T12:22:15;158478.50;;;24.75;35.75
12913;BME280;6524;51.368;11.984;2023-06-24T12:27:15;158533.81;;;24.97;36.20
12913;BME280;6524;51.368;11.984;2023-06-24T12:32:16;158601.09;;;25.23;35.10
12913;BME280;6524;51.368;11.984;2023-06-24T12:37:16;158628.75;;;25.33;34.47
12913;BME280;6524;51.368;11.984;2023-06-24T12:42:16;158655.13;;;25.44;34.65
12913;BME280;6524;51.368;11.984;2023-06-24T12:47:17;158668.31;;;25.49;32.76
12913;BME280;6524;51.368;11.984;2023-06-24T12:52:19;158731.66;;;25.73;33.80
12913;BME280;6524;51.368;11.984;2023-06-24T12:57:20;158706.59;;;25.63;33.77
12913;BME280;6524;51.368;11.984;2023-06-24T13:02:22;158752.72;;;25.81;32.99
12913;BME280;6524;51.368;11.984;2023-06-24T13:07:25;158800.19;;;26.00;32.99
12913;BME280;6524;51.368;11.984;2023-06-24T13:12:27;158715.81;;;25.67;31.25
12913;BME280;6524;51.368;11.984;2023-06-24T13:17:30;158860.91;;;26.23;31.32
12913;BME280;6524;51.368;11.984;2023-06-24T13:22:32;158889.91;;;26.35;31.28
12913;BME280;6524;51.368;11.984;2023-06-24T13:27:35;158949.34;;;26.58;32.26
12913;BME280;6524;51.368;11.984;2023-06-24T13:32:36;158934.78;;;26.52;30.72
12913;BME280;6524;51.368;11.984;2023-06-24T13:37:38;158912.34;;;26.43;30.72
12913;BME280;6524;51.368;11.984;2023-06-24T13:42:38;158905.75;;;26.41;31.06
12913;BME280;6524;51.368;11.984;2023-06-24T13:47:41;158874.06;;;26.28;31.13
12913;BME280;6524;51.368;11.984;2023-06-24T13:52:42;158908.41;;;26.42;32.31
12913;BME280;6524;51.368;11.984;2023-06-24T13:57:46;158827.97;;;26.11;31.65
12913;BME280;6524;51.368;11.984;2023-06-24T14:02:46;158736.94;;;25.75;31.67
12913;BME280;6524;51.368;11.984;2023-06-24T14:07:47;158829.28;;;26.11;30.78
12913;BME280;6524;51.368;11.984;2023-06-24T14:12:47;158802.88;;;26.01;30.31
12913;BME280;6524;51.368;11.984;2023-06-24T14:17:47;158732.97;;;25.74;30.69
12913;BME280;6524;51.368;11.984;2023-06-24T14:22:48;158711.84;;;25.66;31.91
12913;BME280;6524;51.368;11.984;2023-06-24T14:27:48;158639.28;;;25.37;30.92
12913;BME280;6524;51.368;11.984;2023-06-24T14:32:48;158685.50;;;25.55;32.90
12913;BME280;6524;51.368;11.984;2023-06-24T14:37:49;158636.66;;;25.36;31.89
12913;BME280;6524;51.368;11.984;2023-06-24T14:42:49;158676.28;;;25.52;32.43
12913;BME280;6524;51.368;11.984;2023-06-24T14:47:49;158747.47;;;25.79;31.75
12913;BME280;6524;51.368;11.984;2023-06-24T14:52:50;158700.00;;;25.61;32.55
12913;BME280;6524;51.368;11.984;2023-06-24T14:57:51;158668.31;;;25.49;32.01
12913;BME280;6524;51.368;11.984;2023-06-24T15:02:51;158609.00;;;25.26;33.00
12913;BME280;6524;51.368;11.984;2023-06-24T15:07:52;158524.59;;;24.93;33.33
12913;BME280;6524;51.368;11.984;2023-06-24T15:12:52;158440.28;;;24.60;34.81
12913;BME280;6524;51.368;11.984;2023-06-24T15:17:52;158421.84;;;24.53;34.39
12913;BME280;6524;51.368;11.984;2023-06-24T15:22:52;158467.94;;;24.71;34.31
12913;BME280;6524;51.368;11.984;2023-06-24T15:27:53;158433.69;;;24.58;34.46
12913;BME280;6524;51.368;11.984;2023-06-24T15:32:53;158402.06;;;24.45;34.84
12913;BME280;6524;51.368;11.984;2023-06-24T15:37:53;158420.47;;;24.53;35.61
12913;BME280;6524;51.368;11.984;2023-06-24T15:42:54;158346.66;;;24.24;35.68
12913;BME280;6524;51.368;11.984;2023-06-24T15:47:54;158315.03;;;24.12;36.41
12913;BME280;6524;51.368;11.984;2023-06-24T15:52:57;158350.66;;;24.25;36.12
12913;BME280;6524;51.368;11.984;2023-06-24T15:57:57;158350.66;;;24.25;36.09
12913;BME280;6524;51.368;11.984;2023-06-24T16:03:01;158330.84;;;24.18;36.09
12913;BME280;6524;51.368;11.984;2023-06-24T16:08:04;158349.34;;;24.25;36.85
12913;BME280;6524;51.368;11.984;2023-06-24T16:13:05;158307.13;;;24.09;36.63
12913;BME280;6524;51.368;11.984;2023-06-24T16:18:14;158296.63;;;24.05;36.05
12913;BME280;6524;51.368;11.984;2023-06-24T16:23:18;158286.09;;;24.00;37.22
12913;BME280;6524;51.368;11.984;2023-06-24T16:28:18;158225.44;;;23.77;37.20
12913;BME280;6524;51.368;11.984;2023-06-24T16:33:19;158236.00;;;23.81;36.34
12913;BME280;6524;51.368;11.984;2023-06-24T16:38:19;158220.19;;;23.75;37.04
12913;BME280;6524;51.368;11.984;2023-06-24T16:43:21;158225.44;;;23.77;36.46
12913;BME280;6524;51.368;11.984;2023-06-24T16:48:22;158184.63;;;23.61;36.68
12913;BME280;6524;51.368;11.984;2023-06-24T16:53:24;158126.69;;;23.39;37.84
12913;BME280;6524;51.368;11.984;2023-06-24T16:58:26;158149.06;;;23.47;37.98
12913;BME280;6524;51.368;11.984;2023-06-24T17:03:26;158135.91;;;23.42;38.51
12913;BME280;6524;51.368;11.984;2023-06-24T17:08:27;158106.91;;;23.31;37.77
12913;BME280;6524;51.368;11.984;2023-06-24T17:13:30;158077.91;;;23.20;38.77
12913;BME280;6524;51.368;11.984;2023-06-24T17:18:32;158035.81;;;23.03;40.10
12913;BME280;6524;51.368;11.984;2023-06-24T17:23:33;158062.13;;;23.14;39.04
12913;BME280;6524;51.368;11.984;2023-06-24T17:28:33;158022.63;;;22.98;39.67
12913;BME280;6524;51.368;11.984;2023-06-24T17:33:33;157992.31;;;22.86;40.26
12913;BME280;6524;51.368;11.984;2023-06-24T17:38:40;157989.72;;;22.85;40.54
12913;BME280;6524;51.368;11.984;2023-06-24T17:43:41;158014.72;;;22.95;39.84
12913;BME280;6524;51.368;11.984;2023-06-24T17:48:42;158020.00;;;22.97;40.32
12913;BME280;6524;51.368;11.984;2023-06-24T17:53:47;157938.34;;;22.65;40.57
12913;BME280;6524;51.368;11.984;2023-06-24T17:58:49;157919.88;;;22.58;40.82
12913;BME280;6524;51.368;11.984;2023-06-24T18:03:49;157877.78;;;22.42;40.70
12913;BME280;6524;51.368;11.984;2023-06-24T18:08:53;157848.84;;;22.31;40.85
12913;BME280;6524;51.368;11.984;2023-06-24T18:13:56;157810.63;;;22.16;41.32
12913;BME280;6524;51.368;11.984;2023-06-24T18:19:00;157817.22;;;22.18;42.63
12913;BME280;6524;51.368;11.984;2023-06-24T18:24:03;157792.22;;;22.09;43.26
12913;BME280;6524;51.368;11.984;2023-06-24T18:29:07;157767.19;;;21.99;44.11
12913;BME280;6524;51.368;11.984;2023-06-24T18:34:10;157714.59;;;21.79;44.66
12913;BME280;6524;51.368;11.984;2023-06-24T18:39:13;157672.50;;;21.62;44.96
12913;BME280;6524;51.368;11.984;2023-06-24T18:44:14;157640.88;;;21.50;45.28
12913;BME280;6524;51.368;11.984;2023-06-24T18:49:15;157630.38;;;21.46;45.63
12913;BME280;6524;51.368;11.984;2023-06-24T18:54:18;157630.38;;;21.46;45.74
12913;BME280;6524;51.368;11.984;2023-06-24T18:59:23;157632.97;;;21.47;46.04
12913;BME280;6524;51.368;11.984;2023-06-24T19:04:23;157583.00;;;21.27;46.49
12913;BME280;6524;51.368;11.984;2023-06-24T19:09:25;157552.75;;;21.16;46.55
12913;BME280;6524;51.368;11.984;2023-06-24T19:14:27;157490.88;;;20.92;46.57
12913;BME280;6524;51.368;11.984;2023-06-24T19:19:27;157422.53;;;20.65;47.80
12913;BME280;6524;51.368;11.984;2023-06-24T19:24:27;157388.38;;;20.52;49.01
12913;BME280;6524;51.368;11.984;2023-06-24T19:29:28;157380.50;;;20.49;49.67
12913;BME280;6524;51.368;11.984;2023-06-24T19:34:31;157359.44;;;20.41;51.51
12913;BME280;6524;51.368;11.984;2023-06-24T19:39:32;157235.88;;;19.93;52.75
12913;BME280;6524;51.368;11.984;2023-06-24T19:44:32;157180.63;;;19.71;53.05
12913;BME280;6524;51.368;11.984;2023-06-24T19:49:32;157133.31;;;19.53;53.22
12913;BME280;6524;51.368;11.984;2023-06-24T19:54:33;157122.81;;;19.49;52.99
12913;BME280;6524;51.368;11.984;2023-06-24T19:59:33;157046.59;;;19.19;53.38
12913;BME280;6524;51.368;11.984;2023-06-24T20:04:34;156997.94;;;19.00;53.49
12913;BME280;6524;51.368;11.984;2023-06-24T20:09:35;156946.75;;;18.80;54.71
12913;BME280;6524;51.368;11.984;2023-06-24T20:14:38;156957.25;;;18.84;54.35
12913;BME280;6524;51.368;11.984;2023-06-24T20:19:40;156915.22;;;18.68;55.43
12913;BME280;6524;51.368;11.984;2023-06-24T20:24:46;156896.88;;;18.61;56.01
12913;BME280;6524;51.368;11.984;2023-06-24T20:29:59;156824.59;;;18.33;57.51
12913;BME280;6524;51.368;11.984;2023-06-24T20:35:07;156724.81;;;17.94;58.01
12913;BME280;6524;51.368;11.984;2023-06-24T20:40:08;156756.31;;;18.06;58.47
12913;BME280;6524;51.368;11.984;2023-06-24T20:45:09;156640.78;;;17.61;57.67
12913;BME280;6524;51.368;11.984;2023-06-24T20:50:09;156652.56;;;17.66;58.62
12913;BME280;6524;51.368;11.984;2023-06-24T20:55:10;156670.94;;;17.73;58.84
12913;BME280;6524;51.368;11.984;2023-06-24T21:00:11;156583.06;;;17.38;59.25
12913;BME280;6524;51.368;11.984;2023-06-24T21:51:43;156348.19;;;16.47;62.55
12913;BME280;6524;51.368;11.984;2023-06-24T21:56:44;156348.19;;;16.47;62.48
12913;BME280;6524;51.368;11.984;2023-06-24T22:01:44;156344.28;;;16.45;62.71
12913;BME280;6524;51.368;11.984;2023-06-24T22:06:44;156307.47;;;16.31;63.99
12913;BME280;6524;51.368;11.984;2023-06-24T22:11:45;156335.09;;;16.42;63.08
12913;BME280;6524;51.368;11.984;2023-06-24T22:16:45;156295.72;;;16.27;63.61
12913;BME280;6524;51.368;11.984;2023-06-24T22:21:45;156201.31;;;15.90;65.19
12913;BME280;6524;51.368;11.984;2023-06-24T22:26:46;156169.84;;;15.77;64.76
12913;BME280;6524;51.368;11.984;2023-06-24T22:31:46;156083.28;;;15.44;66.19
12913;BME280;6524;51.368;11.984;2023-06-24T22:36:46;156093.78;;;15.48;66.25
12913;BME280;6524;51.368;11.984;2023-06-24T22:41:47;156104.25;;;15.52;66.48
12913;BME280;6524;51.368;11.984;2023-06-24T22:46:47;156140.97;;;15.66;66.06
12913;BME280;6524;51.368;11.984;2023-06-24T22:51:48;156120.00;;;15.58;66.91
12913;BME280;6524;51.368;11.984;2023-06-24T22:56:48;156140.97;;;15.66;66.77
12913;BME280;6524;51.368;11.984;2023-06-24T23:01:48;156108.22;;;15.53;66.24
12913;BME280;6524;51.368;11.984;2023-06-24T23:06:49;156036.16;;;15.25;68.03
12913;BME280;6524;51.368;11.984;2023-06-24T23:11:50;156110.84;;;15.54;67.21
12913;BME280;6524;51.368;11.984;2023-06-24T23:16:50;156051.81;;;15.31;67.70
12913;BME280;6524;51.368;11.984;2023-06-24T23:21:51;155991.59;;;15.08;68.77
12913;BME280;6524;51.368;11.984;2023-06-24T23:26:53;156020.44;;;15.19;68.48
12913;BME280;6524;51.368;11.984;2023-06-24T23:31:53;155941.75;;;14.89;68.79
12913;BME280;6524;51.368;11.984;2023-06-24T23:36:54;155919.47;;;14.80;69.63
12913;BME280;6524;51.368;11.984;2023-06-24T23:41:55;155884.13;;;14.66;70.50
12913;BME280;6524;51.368;11.984;2023-06-24T23:46:57;155946.97;;;14.91;70.76
12913;BME280;6524;51.368;11.984;2023-06-24T23:51:58;155919.47;;;14.80;71.26
12913;BME280;6524;51.368;11.984;2023-06-24T23:56:58;155842.19;;;14.50;72.34
